Gorgan, Iran
Current Conditions -  °F | °C
As of 7:00 AM on Thursday 23 Oct 2014 (Local Time) from OING Reporting Station
Clear Clear  
Wind Chill: 14°   Ceiling: Unl
Heat Index: 14°   Visibility: 6mi
Dew Point: 10°   Wind: 5mph
Humidity: 77%   Direction: 80°E
Pressure: 30.03"   Gusts: NA
Location:  36.83°N, 54.48°E
Report Text: OING 230400Z 08004KT CAVOK 14/10 Q1017
Loading
Personal Weather Stations






























Interactive Weather Map
Tropical Storm Tracking
New forecast layout! Learn more

10-Day Weather Forecast

Advertisements
Track Severe Weather on mobile